Terminal Aerodrome Forecast
Issued by NWS

Current Version | Previous Version | Text Only | Print | Product List | Glossary On
Versions: 1 2 3 4 5 6 7 8 9 10 11 12 13 14 15 16
000
FTUS46 KMFR 250841 AAB
TAFOTH
TAF AMD
KOTH 250841Z 2509/2606 VRB03KT 1/4SM FG OVC002
     FM251500 13003KT 2SM BR BKN002 BKN200
     FM251600 13003KT P6SM SCT200
     FM252000 27005KT P6SM SKC
     FM260400 16004KT 5SM BR BKN008=

USA.gov is the U.S. government's official web portal to all federal, state and local government web resources and services.